Mugan — 9HA2962 — position and weather

sailwx.info

Track history (hours):
 
Tides and Currents Weather Stations Pressure Air Temp Water Temp Dewpoint Dewpoint Depression Visibility Wind Speed Wind Dir Waves Ship Positions

Mugan

Last reported at 2017-Feb-25 12:12 UTC. Time now 2017-Feb-26 03:30 UTC.
Position N 43°25' E 004°55'.

Length 140 m; draft 3.5 m.

Type: Ship. MMSI: 256914000.

Date/timePositionNaut miles runAvg speedWind from/ knotsBaromVisibWave heightAir tempDewpointWater temp
2017-Feb-25 12:12N 43°25' E 004°55'0 0.0
2017-Feb-25 10:06N 43°25' E 004°55'0 0.0
2017-Feb-25 09:33N 43°25' E 004°55'0 0.0
2017-Feb-25 08:27N 43°25' E 004°55'0 0.0
2017-Feb-25 04:33N 43°25' E 004°55'0 0.0
2017-Feb-25 03:33N 43°25' E 004°55'0 0.0
2017-Feb-24 20:09N 43°25' E 004°55'0 0.0
2017-Feb-24 17:30N 43°25' E 004°55'0 0.0
2017-Feb-24 16:09N 43°25' E 004°55'3 0.3
2017-Feb-24 06:33N 43°22' E 004°58'8 7.7
2017-Feb-24 05:31N 43°15' E 005°01'12 8.9
2017-Feb-24 04:11N 43°04' E 004°55'20 9.6
2017-Feb-24 02:08N 42°47' E 004°41'38 9.6
2017-Feb-23 22:12N 42°16' E 004°13'8310.2
2017-Feb-23 14:06N 41°19' E 002°53'1010.4
2017-Feb-23 13:08N 41°12' E 002°43'610.5
2017-Feb-23 12:33N 41°08' E 002°37'2 2.4
2017-Feb-23 11:33N 41°07' E 002°34'1 0.5
2017-Feb-23 10:33N 41°06' E 002°34'1 0.7
2017-Feb-23 09:33N 41°06' E 002°33'1 0.6
2017-Feb-23 08:27N 41°05' E 002°33'1 0.6
2017-Feb-23 07:33N 41°05' E 002°32'1 0.6
2017-Feb-23 06:29N 41°04' E 002°32'0 0.5
2017-Feb-23 05:33N 41°04' E 002°31'0 0.5
2017-Feb-23 04:33N 41°04' E 002°31'0 0.4
2017-Feb-23 03:33N 41°04' E 002°30'0 0.3
2017-Feb-23 02:33N 41°03' E 002°30'0 0.3
2017-Feb-23 01:33N 41°03' E 002°30'0 0.3
2017-Feb-23 00:33N 41°03' E 002°29'0 0.5
2017-Feb-22 23:33N 41°04' E 002°29'1 0.7
2017-Feb-22 22:33N 41°04' E 002°28'1 0.8
2017-Feb-22 21:33N 41°05' E 002°27'1 0.8
2017-Feb-22 20:33N 41°05' E 002°27'1 0.8
2017-Feb-22 19:33N 41°06' E 002°26'1 0.6
2017-Feb-22 18:33N 41°07' E 002°26'0 0.5
2017-Feb-22 17:33N 41°07' E 002°26'0 0.4
2017-Feb-22 16:33N 41°07' E 002°25'0 0.3
2017-Feb-22 15:33N 41°08' E 002°25'0 0.1
2017-Feb-22 14:27N 41°08' E 002°25'0 0.1
2017-Feb-22 13:33N 41°08' E 002°25'0 0.2
2017-Feb-22 12:33N 41°08' E 002°25'0 0.4
2017-Feb-22 11:33N 41°08' E 002°25'1 0.7
2017-Feb-22 10:33N 41°09' E 002°26'1 0.7
2017-Feb-22 09:33N 41°09' E 002°26'1 0.8
2017-Feb-22 08:33N 41°10' E 002°26'1 0.8
2017-Feb-22 07:31N 41°11' E 002°27'1 1.0
2017-Feb-22 06:31N 41°10' E 002°27'1110.0
2017-Feb-22 05:27N 40°60' E 002°22'1 0.5
2017-Feb-22 04:27N 40°59' E 002°22'1 0.8
2017-Feb-22 03:33N 41°00' E 002°22'1 0.7
2017-Feb-22 02:33N 41°01' E 002°22'1 0.5
2017-Feb-22 01:33N 41°01' E 002°22'0 0.4
2017-Feb-22 00:33N 41°02' E 002°22'0 0.4
2017-Feb-21 23:33N 41°02' E 002°21'0 0.4
2017-Feb-21 22:33N 41°02' E 002°21'0 0.4
2017-Feb-21 21:33N 41°02' E 002°20'0 0.4
2017-Feb-21 20:33N 41°02' E 002°20'0 0.2
2017-Feb-21 19:33N 41°02' E 002°19'0 0.2
2017-Feb-21 18:33N 41°02' E 002°19'0 0.1
2017-Feb-21 17:33N 41°02' E 002°19'0 0.3
2017-Feb-21 16:33N 41°02' E 002°19'0 0.3
2017-Feb-21 15:33N 41°01' E 002°19'0 0.4
2017-Feb-21 14:33N 41°01' E 002°20'1 0.6
2017-Feb-21 13:32N 41°01' E 002°20'0 0.4
2017-Feb-21 12:33N 41°01' E 002°21'1 0.6
2017-Feb-21 11:33N 41°01' E 002°22'1 0.8
2017-Feb-21 10:33N 41°02' E 002°22'1 0.8
2017-Feb-21 09:33N 41°02' E 002°23'1 0.9
2017-Feb-21 08:33N 41°03' E 002°24'1 1.0
2017-Feb-21 07:33N 41°04' E 002°24'1 1.1
2017-Feb-21 06:33N 41°05' E 002°25'1 1.0
2017-Feb-21 05:33N 41°05' E 002°26'1 0.8
2017-Feb-21 04:33N 41°06' E 002°27'1 0.8
2017-Feb-21 03:33N 41°07' E 002°27'1 0.8
2017-Feb-21 02:33N 41°08' E 002°27'1 0.9
2017-Feb-21 01:33N 41°09' E 002°27'1 0.8
2017-Feb-21 00:33N 41°10' E 002°27'0 0.4
2017-Feb-20 23:33N 41°10' E 002°26'10 9.6
2017-Feb-20 22:33N 41°02' E 002°19'1010.3
2017-Feb-20 21:33N 40°53' E 002°11'1010.5
2017-Feb-20 20:33N 40°45' E 002°04'1110.9
2017-Feb-20 19:33N 40°36' E 001°56'1111.3
2017-Feb-20 18:33N 40°26' E 001°47'1110.7
2017-Feb-20 17:33N 40°18' E 001°38'1010.4
2017-Feb-20 16:33N 40°10' E 001°30'1110.7
2017-Feb-20 15:33N 40°00' E 001°23'1010.4
2017-Feb-20 14:33N 39°51' E 001°17'1010.2
2017-Feb-20 13:32N 39°42' E 001°11'378 8.8
2017-Feb-18 18:33N 35°56' W 005°13'5 4.6
2017-Feb-18 17:31N 35°54' W 005°18'0 0.0
2017-Feb-18 16:31N 35°54' W 005°18'0 0.0
2017-Feb-18 15:34N 35°54' W 005°18'7 7.2
2017-Feb-18 14:33N 35°57' W 005°26'1211.8
2017-Feb-18 13:34N 35°54' W 005°40'  
Track history (hours):
 
Tides and Currents Weather Stations Pressure Air Temp Water Temp Dewpoint Dewpoint Depression Visibility Wind Speed Wind Dir Waves Ship Positions

Mugan

Last reported at 2017-Feb-25 12:12 UTC. Time now 2017-Feb-26 03:30 UTC.
Position N 43°25' E 004°55'.

Length 140 m; draft 3.5 m.

Type: Ship. MMSI: 256914000.

Date/timePositionNaut miles runAvg speedWind from/ knotsBaromVisibWave heightAir tempDewpointWater temp
2017-Feb-25 12:12N 43°25' E 004°55'0 0.0
2017-Feb-25 10:06N 43°25' E 004°55'0 0.0
2017-Feb-25 09:33N 43°25' E 004°55'0 0.0
2017-Feb-25 08:27N 43°25' E 004°55'0 0.0
2017-Feb-25 04:33N 43°25' E 004°55'0 0.0
2017-Feb-25 03:33N 43°25' E 004°55'0 0.0
2017-Feb-24 20:09N 43°25' E 004°55'0 0.0
2017-Feb-24 17:30N 43°25' E 004°55'0 0.0
2017-Feb-24 16:09N 43°25' E 004°55'3 0.3
2017-Feb-24 06:33N 43°22' E 004°58'8 7.7
2017-Feb-24 05:31N 43°15' E 005°01'12 8.9
2017-Feb-24 04:11N 43°04' E 004°55'20 9.6
2017-Feb-24 02:08N 42°47' E 004°41'38 9.6
2017-Feb-23 22:12N 42°16' E 004°13'8310.2
2017-Feb-23 14:06N 41°19' E 002°53'1010.4
2017-Feb-23 13:08N 41°12' E 002°43'610.5
2017-Feb-23 12:33N 41°08' E 002°37'2 2.4
2017-Feb-23 11:33N 41°07' E 002°34'1 0.5
2017-Feb-23 10:33N 41°06' E 002°34'1 0.7
2017-Feb-23 09:33N 41°06' E 002°33'1 0.6
2017-Feb-23 08:27N 41°05' E 002°33'1 0.6
2017-Feb-23 07:33N 41°05' E 002°32'1 0.6
2017-Feb-23 06:29N 41°04' E 002°32'0 0.5
2017-Feb-23 05:33N 41°04' E 002°31'0 0.5
2017-Feb-23 04:33N 41°04' E 002°31'0 0.4
2017-Feb-23 03:33N 41°04' E 002°30'0 0.3
2017-Feb-23 02:33N 41°03' E 002°30'0 0.3
2017-Feb-23 01:33N 41°03' E 002°30'0 0.3
2017-Feb-23 00:33N 41°03' E 002°29'0 0.5
2017-Feb-22 23:33N 41°04' E 002°29'1 0.7
2017-Feb-22 22:33N 41°04' E 002°28'1 0.8
2017-Feb-22 21:33N 41°05' E 002°27'1 0.8
2017-Feb-22 20:33N 41°05' E 002°27'1 0.8
2017-Feb-22 19:33N 41°06' E 002°26'1 0.6
2017-Feb-22 18:33N 41°07' E 002°26'0 0.5
2017-Feb-22 17:33N 41°07' E 002°26'0 0.4
2017-Feb-22 16:33N 41°07' E 002°25'0 0.3
2017-Feb-22 15:33N 41°08' E 002°25'0 0.1
2017-Feb-22 14:27N 41°08' E 002°25'0 0.1
2017-Feb-22 13:33N 41°08' E 002°25'0 0.2
2017-Feb-22 12:33N 41°08' E 002°25'0 0.4
2017-Feb-22 11:33N 41°08' E 002°25'1 0.7
2017-Feb-22 10:33N 41°09' E 002°26'1 0.7
2017-Feb-22 09:33N 41°09' E 002°26'1 0.8
2017-Feb-22 08:33N 41°10' E 002°26'1 0.8
2017-Feb-22 07:31N 41°11' E 002°27'1 1.0
2017-Feb-22 06:31N 41°10' E 002°27'1110.0
2017-Feb-22 05:27N 40°60' E 002°22'1 0.5
2017-Feb-22 04:27N 40°59' E 002°22'1 0.8
2017-Feb-22 03:33N 41°00' E 002°22'1 0.7
2017-Feb-22 02:33N 41°01' E 002°22'1 0.5
2017-Feb-22 01:33N 41°01' E 002°22'0 0.4
2017-Feb-22 00:33N 41°02' E 002°22'0 0.4
2017-Feb-21 23:33N 41°02' E 002°21'0 0.4
2017-Feb-21 22:33N 41°02' E 002°21'0 0.4
2017-Feb-21 21:33N 41°02' E 002°20'0 0.4
2017-Feb-21 20:33N 41°02' E 002°20'0 0.2
2017-Feb-21 19:33N 41°02' E 002°19'0 0.2
2017-Feb-21 18:33N 41°02' E 002°19'0 0.1
2017-Feb-21 17:33N 41°02' E 002°19'0 0.3
2017-Feb-21 16:33N 41°02' E 002°19'0 0.3
2017-Feb-21 15:33N 41°01' E 002°19'0 0.4
2017-Feb-21 14:33N 41°01' E 002°20'1 0.6
2017-Feb-21 13:32N 41°01' E 002°20'0 0.4
2017-Feb-21 12:33N 41°01' E 002°21'1 0.6
2017-Feb-21 11:33N 41°01' E 002°22'1 0.8
2017-Feb-21 10:33N 41°02' E 002°22'1 0.8
2017-Feb-21 09:33N 41°02' E 002°23'1 0.9
2017-Feb-21 08:33N 41°03' E 002°24'1 1.0
2017-Feb-21 07:33N 41°04' E 002°24'1 1.1
2017-Feb-21 06:33N 41°05' E 002°25'1 1.0
2017-Feb-21 05:33N 41°05' E 002°26'1 0.8
2017-Feb-21 04:33N 41°06' E 002°27'1 0.8
2017-Feb-21 03:33N 41°07' E 002°27'1 0.8
2017-Feb-21 02:33N 41°08' E 002°27'1 0.9
2017-Feb-21 01:33N 41°09' E 002°27'1 0.8
2017-Feb-21 00:33N 41°10' E 002°27'0 0.4
2017-Feb-20 23:33N 41°10' E 002°26'10 9.6
2017-Feb-20 22:33N 41°02' E 002°19'1010.3
2017-Feb-20 21:33N 40°53' E 002°11'1010.5
2017-Feb-20 20:33N 40°45' E 002°04'1110.9
2017-Feb-20 19:33N 40°36' E 001°56'1111.3
2017-Feb-20 18:33N 40°26' E 001°47'1110.7
2017-Feb-20 17:33N 40°18' E 001°38'1010.4
2017-Feb-20 16:33N 40°10' E 001°30'1110.7
2017-Feb-20 15:33N 40°00' E 001°23'1010.4
2017-Feb-20 14:33N 39°51' E 001°17'1010.2
2017-Feb-20 13:32N 39°42' E 001°11'378 8.8
2017-Feb-18 18:33N 35°56' W 005°13'5 4.6
2017-Feb-18 17:31N 35°54' W 005°18'0 0.0
2017-Feb-18 16:31N 35°54' W 005°18'0 0.0
2017-Feb-18 15:34N 35°54' W 005°18'7 7.2
2017-Feb-18 14:33N 35°57' W 005°26'1211.8
2017-Feb-18 13:34N 35°54' W 005°40'  

Dump ship's entire track history